createdAt,value
2022-11-29T00:01:33.648Z,-1.30
2022-11-29T00:04:01.644Z,-1.30
2022-11-29T00:06:32.939Z,-1.30
2022-11-29T00:09:06.224Z,-1.40
2022-11-29T00:11:54.641Z,-1.40
2022-11-29T00:14:22.940Z,-1.30
2022-11-29T00:16:56.310Z,-1.40
2022-11-29T00:19:23.949Z,-1.40
2022-11-29T00:21:51.411Z,-1.30
2022-11-29T00:24:19.323Z,-1.40
2022-11-29T00:26:48.064Z,-1.30
2022-11-29T00:29:15.840Z,-1.40
2022-11-29T00:31:44.526Z,-1.30
2022-11-29T00:34:12.772Z,-1.30
2022-11-29T00:36:40.793Z,-1.30
2022-11-29T00:39:12.021Z,-1.20
2022-11-29T00:41:40.172Z,-1.10
2022-11-29T00:44:08.090Z,-1.20
2022-11-29T00:46:35.872Z,-1.20
2022-11-29T00:49:04.219Z,-1.30
2022-11-29T00:51:32.223Z,-1.30
2022-11-29T00:53:59.748Z,-1.20
2022-11-29T00:56:27.445Z,-1.10
2022-11-29T00:58:54.980Z,-1.00
2022-11-29T01:01:22.564Z,-1.00
2022-11-29T01:03:50.092Z,-1.10
2022-11-29T01:06:18.686Z,-1.20
2022-11-29T01:08:46.428Z,-1.30
2022-11-29T01:11:21.856Z,-1.20
2022-11-29T01:13:50.875Z,-1.10
2022-11-29T01:16:18.660Z,-1.00
2022-11-29T01:18:46.243Z,-1.10
2022-11-29T01:21:19.571Z,-1.20
2022-11-29T01:23:48.302Z,-1.30
2022-11-29T01:26:22.197Z,-1.20
2022-11-29T01:28:51.784Z,-1.20
2022-11-29T01:31:32.120Z,-1.20
2022-11-29T01:34:01.943Z,-1.30
2022-11-29T01:36:30.280Z,-1.20
2022-11-29T01:39:00.136Z,-1.10
2022-11-29T01:41:31.536Z,-1.10
2022-11-29T01:44:14.093Z,-1.00
2022-11-29T01:46:46.699Z,-1.00
2022-11-29T01:49:23.444Z,-1.20
2022-11-29T01:51:55.496Z,-1.30
2022-11-29T01:54:23.143Z,-1.20
2022-11-29T01:56:52.880Z,-1.20
2022-11-29T01:59:24.451Z,-1.20
2022-11-29T02:01:52.257Z,-1.10
2022-11-29T02:04:20.204Z,-1.10
2022-11-29T02:06:48.098Z,-1.10
2022-11-29T02:09:22.226Z,-1.20
2022-11-29T02:12:02.125Z,-1.20
2022-11-29T02:14:54.289Z,-1.20
2022-11-29T02:17:21.703Z,-1.20
2022-11-29T02:20:11.439Z,-1.10
2022-11-29T02:23:09.388Z,-1.10
2022-11-29T02:25:55.004Z,-1.10
2022-11-29T02:28:49.952Z,-1.10
2022-11-29T02:31:35.516Z,-1.10
2022-11-29T02:34:02.904Z,-1.10
2022-11-29T02:36:39.223Z,-1.00
2022-11-29T02:39:27.788Z,-1.10
2022-11-29T02:42:31.760Z,-1.00
2022-11-29T02:45:20.273Z,-1.00
2022-11-29T02:48:24.795Z,-1.00
2022-11-29T02:50:58.669Z,-1.00
2022-11-29T02:53:41.110Z,-1.00
2022-11-29T02:57:05.781Z,-1.10
2022-11-29T02:59:55.045Z,-1.10
2022-11-29T03:02:52.884Z,-1.10
2022-11-29T03:06:08.898Z,-1.10
2022-11-29T03:09:03.375Z,-1.10
2022-11-29T03:11:48.512Z,-1.10
2022-11-29T03:14:40.577Z,-1.00
2022-11-29T03:17:31.455Z,-1.00
2022-11-29T03:20:13.994Z,-0.90
2022-11-29T03:23:06.395Z,-0.90
2022-11-29T03:25:58.495Z,-0.90
2022-11-29T03:28:45.392Z,-1.00
2022-11-29T03:31:28.447Z,-0.90
2022-11-29T03:34:18.380Z,-0.90
2022-11-29T03:37:01.095Z,-0.90
2022-11-29T03:39:45.162Z,-0.90
2022-11-29T03:42:25.246Z,-0.90
2022-11-29T03:44:59.502Z,-0.80
2022-11-29T03:47:35.256Z,-0.70
2022-11-29T03:50:11.354Z,-0.70
2022-11-29T03:52:46.420Z,-0.70
2022-11-29T03:55:41.837Z,-0.80
2022-11-29T03:58:30.504Z,-0.80
2022-11-29T04:01:23.555Z,-0.80
2022-11-29T04:03:57.070Z,-0.80
2022-11-29T04:06:52.673Z,-0.70
2022-11-29T04:09:46.189Z,-0.80
2022-11-29T04:12:38.445Z,-0.80
2022-11-29T04:15:46.290Z,-0.80
2022-11-29T04:18:20.704Z,-0.80
2022-11-29T04:21:06.874Z,-0.70
2022-11-29T04:24:06.712Z,-0.60
2022-11-29T04:27:02.110Z,-0.60
2022-11-29T04:29:55.288Z,-0.60
2022-11-29T04:33:08.131Z,-0.70
2022-11-29T04:36:12.029Z,-0.80
2022-11-29T04:39:03.513Z,-0.80
2022-11-29T04:42:15.891Z,-0.90
2022-11-29T04:45:17.267Z,-0.80
2022-11-29T04:48:16.070Z,-0.90
2022-11-29T04:51:10.290Z,-0.90
2022-11-29T04:53:58.038Z,-0.90
2022-11-29T04:56:43.438Z,-0.80
2022-11-29T04:59:16.997Z,-0.80
2022-11-29T05:01:47.449Z,-0.80
2022-11-29T05:04:39.582Z,-0.80
2022-11-29T05:07:32.043Z,-0.90
2022-11-29T05:10:17.965Z,-0.90
2022-11-29T05:12:59.627Z,-0.90
2022-11-29T05:15:50.404Z,-0.80
2022-11-29T05:18:50.477Z,-0.80
2022-11-29T05:21:40.161Z,-0.90
2022-11-29T05:24:35.199Z,-0.80
2022-11-29T05:27:54.104Z,-0.90
2022-11-29T05:30:24.401Z,-0.90
2022-11-29T05:33:42.152Z,-0.90
2022-11-29T05:36:28.103Z,-1.00
2022-11-29T05:39:07.709Z,-1.00
2022-11-29T05:42:04.788Z,-1.00
2022-11-29T05:44:45.118Z,-0.90
2022-11-29T05:47:19.931Z,-0.80
2022-11-29T05:50:18.956Z,-0.80
2022-11-29T05:52:57.836Z,-0.90
2022-11-29T05:56:03.907Z,-0.80
2022-11-29T05:58:54.400Z,-0.80
2022-11-29T06:01:45.970Z,-0.90
2022-11-29T06:04:23.299Z,-0.90
2022-11-29T06:06:55.011Z,-1.00
2022-11-29T06:09:39.846Z,-0.80
2022-11-29T06:12:20.656Z,-0.80
2022-11-29T06:15:23.517Z,-0.80
2022-11-29T06:18:10.319Z,-0.90
2022-11-29T06:20:40.825Z,-0.90
2022-11-29T06:23:24.219Z,-0.80
2022-11-29T06:26:16.865Z,-0.90
2022-11-29T06:29:06.586Z,-0.90
2022-11-29T06:31:43.404Z,-0.80
2022-11-29T06:34:16.817Z,-0.90
2022-11-29T06:37:02.804Z,-0.90
2022-11-29T06:39:30.792Z,-0.90
2022-11-29T06:41:58.298Z,-0.70
2022-11-29T06:44:26.120Z,-0.70
2022-11-29T06:47:10.621Z,-0.80
2022-11-29T06:49:49.988Z,-0.70
2022-11-29T06:52:39.020Z,-0.60
2022-11-29T06:55:38.479Z,-0.60
2022-11-29T06:58:21.292Z,-0.70
2022-11-29T07:00:52.375Z,-0.60
2022-11-29T07:03:50.782Z,-0.70
2022-11-29T07:06:29.640Z,-0.60
2022-11-29T07:09:01.958Z,-0.40
2022-11-29T07:11:30.129Z,-0.40
2022-11-29T07:13:57.833Z,-0.40
2022-11-29T07:16:50.203Z,-0.40
2022-11-29T07:19:27.731Z,-0.40
2022-11-29T07:22:24.693Z,-0.40
2022-11-29T07:25:13.396Z,-0.40
2022-11-29T07:28:12.789Z,-0.40
2022-11-29T07:30:55.183Z,-0.40
2022-11-29T07:34:07.045Z,-0.40
2022-11-29T07:37:12.756Z,-0.30
2022-11-29T07:40:03.739Z,-0.30
2022-11-29T07:43:05.431Z,-0.30
2022-11-29T07:45:37.670Z,-0.20
2022-11-29T07:48:05.652Z,-0.30
2022-11-29T07:50:35.033Z,-0.20
2022-11-29T07:53:02.672Z,-0.20
2022-11-29T07:55:32.001Z,-0.10
2022-11-29T07:57:59.544Z,0.00
2022-11-29T08:00:27.026Z,0.20
2022-11-29T08:02:54.505Z,0.20
2022-11-29T08:05:23.106Z,0.40
2022-11-29T08:07:50.689Z,0.30
2022-11-29T08:10:18.245Z,0.20
2022-11-29T08:12:49.957Z,0.30
2022-11-29T08:15:20.861Z,0.20
2022-11-29T08:17:49.395Z,0.20
2022-11-29T08:20:17.339Z,0.50
2022-11-29T08:22:44.976Z,0.60
2022-11-29T08:25:12.663Z,0.60
2022-11-29T08:27:40.170Z,0.70
2022-11-29T08:30:08.233Z,0.60
2022-11-29T08:32:35.828Z,0.70
2022-11-29T08:35:03.592Z,0.80
2022-11-29T08:37:31.156Z,0.70
2022-11-29T08:39:59.014Z,0.60
2022-11-29T08:42:26.617Z,0.70
2022-11-29T08:44:54.107Z,0.70
2022-11-29T08:47:36.723Z,0.70
2022-11-29T08:50:16.679Z,0.80
2022-11-29T08:53:06.453Z,0.80
2022-11-29T08:55:40.413Z,0.80
2022-11-29T08:58:10.650Z,0.80
2022-11-29T09:00:38.497Z,0.80
2022-11-29T09:03:25.863Z,0.90
2022-11-29T09:05:54.063Z,0.70
2022-11-29T09:08:21.916Z,0.80
2022-11-29T09:10:49.782Z,1.10
2022-11-29T09:13:18.186Z,1.20
2022-11-29T09:15:45.855Z,1.40
2022-11-29T09:18:13.432Z,1.40
2022-11-29T09:20:44.025Z,1.60
2022-11-29T09:23:13.178Z,1.80
2022-11-29T09:25:40.723Z,1.90
2022-11-29T09:28:08.692Z,2.00
2022-11-29T09:30:38.120Z,1.90
2022-11-29T09:33:05.737Z,1.70
2022-11-29T09:35:33.754Z,1.80
2022-11-29T09:38:01.243Z,1.90
2022-11-29T09:40:38.767Z,1.60
2022-11-29T09:43:32.119Z,1.80
2022-11-29T09:46:16.136Z,1.90
2022-11-29T09:49:11.095Z,1.90
2022-11-29T09:52:00.007Z,1.90
2022-11-29T09:54:27.437Z,1.90
2022-11-29T09:56:56.818Z,2.00
2022-11-29T09:59:43.372Z,2.10
2022-11-29T10:02:21.577Z,2.30
2022-11-29T10:05:10.055Z,2.40
2022-11-29T10:07:55.113Z,2.50
2022-11-29T10:10:45.723Z,2.30
2022-11-29T10:13:29.808Z,2.40
2022-11-29T10:16:04.437Z,2.20
2022-11-29T10:18:44.333Z,1.90
2022-11-29T10:21:17.143Z,2.10
2022-11-29T10:23:57.602Z,2.10
2022-11-29T10:26:27.307Z,2.20
2022-11-29T10:28:57.995Z,2.30
2022-11-29T10:31:46.991Z,2.40
2022-11-29T10:34:18.058Z,2.20
2022-11-29T10:37:02.608Z,2.40
2022-11-29T10:39:39.683Z,2.30
2022-11-29T10:42:35.880Z,2.40
2022-11-29T10:45:09.659Z,2.60
2022-11-29T10:47:37.355Z,2.60
2022-11-29T10:50:05.132Z,2.70
2022-11-29T10:52:33.935Z,2.80
2022-11-29T10:55:02.323Z,2.70
2022-11-29T10:57:29.908Z,2.80
2022-11-29T11:00:09.778Z,2.90
2022-11-29T11:02:38.456Z,3.00
2022-11-29T11:05:18.461Z,3.10
2022-11-29T11:07:55.472Z,2.80
2022-11-29T11:10:32.541Z,2.80
2022-11-29T11:13:19.210Z,2.70
2022-11-29T11:15:46.710Z,2.70
2022-11-29T11:18:24.356Z,2.80
2022-11-29T11:21:02.027Z,3.00
2022-11-29T11:23:39.862Z,3.00
2022-11-29T11:26:12.731Z,3.00
2022-11-29T11:28:50.808Z,3.00
2022-11-29T11:31:26.787Z,3.00
2022-11-29T11:33:54.595Z,3.10
2022-11-29T11:36:27.177Z,3.20
2022-11-29T11:39:09.917Z,3.40
2022-11-29T11:42:05.432Z,3.30
2022-11-29T11:44:48.966Z,3.50
2022-11-29T11:47:28.624Z,3.50
2022-11-29T11:50:02.398Z,3.60
2022-11-29T11:52:39.804Z,3.50
2022-11-29T11:55:30.613Z,3.60
2022-11-29T11:58:10.189Z,3.70
2022-11-29T12:04:02.521Z,3.80
2022-11-29T12:06:48.260Z,3.80
2022-11-29T12:09:27.679Z,4.10
2022-11-29T12:12:10.095Z,4.40
2022-11-29T12:14:58.075Z,4.60
2022-11-29T12:17:31.420Z,4.90
2022-11-29T12:20:22.263Z,5.30
2022-11-29T12:23:11.463Z,6.10
2022-11-29T12:25:55.436Z,6.50
2022-11-29T12:28:28.220Z,6.10
2022-11-29T12:30:58.695Z,6.40
2022-11-29T12:33:50.313Z,7.30
2022-11-29T12:36:37.117Z,6.80
2022-11-29T12:39:33.693Z,6.30
2022-11-29T12:42:45.462Z,5.90
2022-11-29T12:45:30.312Z,5.40
2022-11-29T12:48:24.394Z,4.80
2022-11-29T12:51:25.938Z,4.40
2022-11-29T12:54:19.739Z,4.30
2022-11-29T12:56:56.671Z,4.40
2022-11-29T12:59:36.211Z,4.30
2022-11-29T13:02:15.646Z,4.30
2022-11-29T13:04:59.418Z,4.20
2022-11-29T13:07:35.325Z,4.00
2022-11-29T13:10:34.787Z,4.10
2022-11-29T13:13:46.088Z,4.10
2022-11-29T13:16:41.607Z,4.00
2022-11-29T13:19:18.571Z,3.90
2022-11-29T13:21:57.893Z,3.90
2022-11-29T13:24:42.417Z,3.90
2022-11-29T13:27:21.590Z,3.80
2022-11-29T13:29:49.354Z,3.80
2022-11-29T13:32:30.344Z,3.70
2022-11-29T13:35:08.196Z,3.70
2022-11-29T13:37:55.224Z,3.60
2022-11-29T13:40:32.220Z,3.60
2022-11-29T13:43:22.884Z,3.50
2022-11-29T13:46:00.676Z,3.50
2022-11-29T13:48:48.719Z,3.40
2022-11-29T13:51:37.109Z,3.40
2022-11-29T13:54:33.169Z,3.40
2022-11-29T13:57:04.068Z,3.20
2022-11-29T13:59:34.557Z,3.10
2022-11-29T14:02:02.961Z,3.10
2022-11-29T14:04:35.989Z,3.00
2022-11-29T14:07:18.779Z,2.90
2022-11-29T14:10:28.670Z,2.90
2022-11-29T14:12:59.830Z,2.90
2022-11-29T14:15:32.844Z,2.80
2022-11-29T14:18:08.803Z,2.80
2022-11-29T14:20:39.464Z,2.90
2022-11-29T14:23:07.739Z,2.80
2022-11-29T14:25:52.798Z,2.80
2022-11-29T14:28:23.504Z,2.70
2022-11-29T14:30:55.443Z,2.70
2022-11-29T14:33:33.807Z,2.80
2022-11-29T14:36:13.349Z,2.80
2022-11-29T14:39:06.813Z,2.70
2022-11-29T14:41:37.216Z,2.70
2022-11-29T14:44:16.737Z,2.60
2022-11-29T14:46:45.673Z,2.60
2022-11-29T14:49:26.067Z,2.50
2022-11-29T14:52:13.645Z,2.50
2022-11-29T14:55:06.260Z,2.50
2022-11-29T14:58:05.958Z,2.40
2022-11-29T15:00:48.621Z,2.30
2022-11-29T15:03:16.247Z,2.20
2022-11-29T15:05:47.862Z,2.20
2022-11-29T15:08:26.783Z,2.10
2022-11-29T15:11:11.043Z,2.00
2022-11-29T15:13:49.668Z,2.00
2022-11-29T15:16:31.738Z,2.00
2022-11-29T15:19:18.031Z,2.10
2022-11-29T15:21:57.860Z,2.10
2022-11-29T15:24:28.713Z,2.10
2022-11-29T15:27:03.596Z,2.10
2022-11-29T15:29:31.859Z,2.00
2022-11-29T15:32:03.729Z,1.90
2022-11-29T15:34:39.704Z,1.90
2022-11-29T15:37:07.136Z,1.80
2022-11-29T15:39:37.004Z,1.80
2022-11-29T15:42:11.012Z,1.80
2022-11-29T15:44:44.923Z,1.80
2022-11-29T15:47:21.623Z,1.70
2022-11-29T15:49:50.420Z,1.70
2022-11-29T15:52:27.116Z,1.60
2022-11-29T15:55:00.831Z,1.70
2022-11-29T15:57:57.453Z,1.70
2022-11-29T16:00:28.087Z,1.60
2022-11-29T16:03:00.249Z,1.60
2022-11-29T16:05:29.168Z,1.60
2022-11-29T16:08:01.578Z,1.50
2022-11-29T16:10:56.674Z,1.50
2022-11-29T16:13:38.407Z,1.40
2022-11-29T16:16:22.524Z,1.40
2022-11-29T16:18:51.230Z,1.40
2022-11-29T16:21:30.002Z,1.30
2022-11-29T16:23:58.615Z,1.30
2022-11-29T16:26:34.839Z,1.20
2022-11-29T16:29:02.861Z,1.10
2022-11-29T16:31:36.964Z,1.10
2022-11-29T16:34:26.792Z,1.00
2022-11-29T16:37:06.569Z,0.90
2022-11-29T16:39:37.507Z,0.80
2022-11-29T16:42:26.188Z,0.50
2022-11-29T16:45:27.795Z,0.40
2022-11-29T16:48:00.499Z,0.30
2022-11-29T16:53:40.189Z,0.10
2022-11-29T16:56:24.184Z,0.10
2022-11-29T16:59:27.354Z,0.10
2022-11-29T17:05:08.817Z,0.00
2022-11-29T17:07:42.251Z,0.00
2022-11-29T17:10:15.865Z,0.20
2022-11-29T17:12:48.013Z,0.10
2022-11-29T17:15:16.236Z,0.10
2022-11-29T17:17:43.906Z,0.20
2022-11-29T17:20:13.205Z,0.10
2022-11-29T17:22:41.280Z,0.20
2022-11-29T17:25:09.781Z,0.30
2022-11-29T17:27:37.323Z,0.30
2022-11-29T17:30:06.622Z,0.30
2022-11-29T17:32:35.695Z,0.30
2022-11-29T17:35:03.493Z,0.20
2022-11-29T17:37:31.502Z,0.20
2022-11-29T17:39:59.023Z,0.10
2022-11-29T17:42:36.251Z,0.10
2022-11-29T17:45:04.253Z,0.00
2022-11-29T17:47:33.408Z,0.00
2022-11-29T17:50:01.643Z,0.00
2022-11-29T17:52:30.508Z,0.00
2022-11-29T17:55:10.541Z,0.00
2022-11-29T17:57:38.400Z,-0.10
2022-11-29T18:00:08.871Z,0.00
2022-11-29T18:02:36.492Z,0.00
2022-11-29T18:05:04.175Z,0.00
2022-11-29T18:07:31.781Z,0.10
2022-11-29T18:09:59.380Z,0.00
2022-11-29T18:12:26.845Z,0.00
2022-11-29T18:14:54.303Z,0.00
2022-11-29T18:17:21.842Z,0.00
2022-11-29T18:19:49.320Z,0.10
2022-11-29T18:22:16.760Z,0.10
2022-11-29T18:24:44.604Z,0.20
2022-11-29T18:27:12.102Z,0.30
2022-11-29T18:29:39.617Z,0.30
2022-11-29T18:32:07.103Z,0.30
2022-11-29T18:34:34.637Z,0.20
2022-11-29T18:37:02.135Z,0.10
2022-11-29T18:39:34.642Z,0.10
2022-11-29T18:42:02.181Z,0.20
2022-11-29T18:44:29.864Z,0.30
2022-11-29T18:46:57.823Z,0.30
2022-11-29T18:49:25.491Z,0.20
2022-11-29T18:51:53.008Z,0.20
2022-11-29T18:54:20.575Z,0.10
2022-11-29T18:56:50.830Z,0.10
2022-11-29T18:59:18.583Z,0.20
2022-11-29T19:01:48.040Z,0.30
2022-11-29T19:04:19.137Z,0.30
2022-11-29T19:06:47.483Z,0.30
2022-11-29T19:09:17.928Z,0.20
2022-11-29T19:11:45.468Z,0.20
2022-11-29T19:14:13.286Z,0.20
2022-11-29T19:16:44.350Z,0.20
2022-11-29T19:19:12.010Z,0.30
2022-11-29T19:21:40.293Z,0.30
2022-11-29T19:24:14.227Z,0.30
2022-11-29T19:26:46.553Z,0.20
2022-11-29T19:29:14.889Z,0.20
2022-11-29T19:31:43.044Z,0.20
2022-11-29T19:34:11.216Z,0.30
2022-11-29T19:36:43.976Z,0.40
2022-11-29T19:39:14.639Z,0.40
2022-11-29T19:41:44.385Z,0.30
2022-11-29T19:44:12.517Z,0.40
2022-11-29T19:46:42.722Z,0.40
2022-11-29T19:49:10.786Z,0.40
2022-11-29T19:51:38.617Z,0.40
2022-11-29T19:54:07.587Z,0.40
2022-11-29T19:56:35.432Z,0.40
2022-11-29T19:59:03.309Z,0.40
2022-11-29T20:01:39.802Z,0.40
2022-11-29T20:04:10.432Z,0.40
2022-11-29T20:06:38.229Z,0.40
2022-11-29T20:09:06.465Z,0.50
2022-11-29T20:11:34.118Z,0.50
2022-11-29T20:14:03.603Z,0.60
2022-11-29T20:16:32.485Z,0.50
2022-11-29T20:19:00.247Z,0.50
2022-11-29T20:21:32.653Z,0.50
2022-11-29T20:24:03.239Z,0.50
2022-11-29T20:26:33.880Z,0.50
2022-11-29T20:29:02.340Z,0.50
2022-11-29T20:31:49.533Z,0.50
2022-11-29T20:34:34.761Z,0.50
2022-11-29T20:37:24.431Z,0.60
2022-11-29T20:40:01.569Z,0.50
2022-11-29T20:42:29.158Z,0.50
2022-11-29T20:45:01.232Z,0.40
2022-11-29T20:47:46.811Z,0.40
2022-11-29T20:50:27.161Z,0.40
2022-11-29T20:53:06.581Z,0.30
2022-11-29T20:55:37.720Z,0.30
2022-11-29T20:58:06.428Z,0.40
2022-11-29T21:00:34.720Z,0.40
2022-11-29T21:03:02.325Z,0.50
2022-11-29T21:05:29.806Z,0.50
2022-11-29T21:07:57.327Z,0.50
2022-11-29T21:10:25.037Z,0.50
2022-11-29T21:12:52.948Z,0.60
2022-11-29T21:15:20.909Z,0.60
2022-11-29T21:17:48.764Z,0.50
2022-11-29T21:20:23.657Z,0.50
2022-11-29T21:23:00.689Z,0.40
2022-11-29T21:25:47.844Z,0.50
2022-11-29T21:28:16.791Z,0.40
2022-11-29T21:30:44.983Z,0.50
2022-11-29T21:33:12.752Z,0.60
2022-11-29T21:35:40.403Z,0.60
2022-11-29T21:38:16.888Z,0.60
2022-11-29T21:40:44.419Z,0.60
2022-11-29T21:43:11.948Z,0.50
2022-11-29T21:45:39.414Z,0.40
2022-11-29T21:48:29.539Z,0.50
2022-11-29T21:50:57.073Z,0.50
2022-11-29T21:53:24.667Z,0.50
2022-11-29T21:55:57.420Z,0.50
2022-11-29T21:58:26.543Z,0.50
2022-11-29T22:00:54.124Z,0.50
2022-11-29T22:03:21.736Z,0.50
2022-11-29T22:05:49.201Z,0.40
2022-11-29T22:08:16.713Z,0.50
2022-11-29T22:10:44.227Z,0.40
2022-11-29T22:13:11.788Z,0.40
2022-11-29T22:15:39.262Z,0.40
2022-11-29T22:18:06.878Z,0.50
2022-11-29T22:20:34.299Z,0.50
2022-11-29T22:23:01.905Z,0.50
2022-11-29T22:25:29.464Z,0.50
2022-11-29T22:27:56.970Z,0.50
2022-11-29T22:30:24.406Z,0.50
2022-11-29T22:32:51.880Z,0.60
2022-11-29T22:35:19.361Z,0.60
2022-11-29T22:37:46.880Z,0.60
2022-11-29T22:40:15.596Z,0.60
2022-11-29T22:42:43.315Z,0.60
2022-11-29T22:45:11.174Z,0.50
2022-11-29T22:47:38.734Z,0.60
2022-11-29T22:50:06.668Z,0.50
2022-11-29T22:52:34.106Z,0.50
2022-11-29T22:55:05.093Z,0.40
2022-11-29T22:57:32.855Z,0.30
2022-11-29T23:00:00.291Z,0.20
2022-11-29T23:02:29.078Z,0.10
2022-11-29T23:04:56.695Z,0.10
2022-11-29T23:07:24.160Z,-0.10
2022-11-29T23:09:51.700Z,-0.10
2022-11-29T23:12:19.193Z,-0.20
2022-11-29T23:14:51.577Z,-0.20
2022-11-29T23:17:22.265Z,-0.20
2022-11-29T23:19:49.716Z,-0.20
2022-11-29T23:22:17.215Z,-0.30
2022-11-29T23:24:45.110Z,-0.40
2022-11-29T23:27:12.834Z,-0.50
2022-11-29T23:29:40.292Z,-0.50
2022-11-29T23:32:07.880Z,-0.50
2022-11-29T23:34:35.484Z,-0.50
2022-11-29T23:37:02.948Z,-0.60
2022-11-29T23:39:30.427Z,-0.60
2022-11-29T23:41:57.891Z,-0.60
2022-11-29T23:44:25.346Z,-0.60
2022-11-29T23:46:52.813Z,-0.50
2022-11-29T23:49:20.285Z,-0.50
2022-11-29T23:51:47.763Z,-0.40
2022-11-29T23:54:15.295Z,-0.30
2022-11-29T23:56:42.765Z,-0.20
2022-11-29T23:59:10.294Z,-0.30
